createdAt,value
2017-11-28T00:01:13.215Z,6.00
2017-11-28T00:03:41.465Z,6.10
2017-11-28T00:06:09.752Z,6.00
2017-11-28T00:08:38.001Z,6.10
2017-11-28T00:11:14.169Z,6.10
2017-11-28T00:13:42.417Z,6.10
2017-11-28T00:16:10.693Z,6.10
2017-11-28T00:18:38.937Z,6.10
2017-11-28T00:21:07.198Z,6.00
2017-11-28T00:23:35.472Z,6.00
2017-11-28T00:26:03.748Z,6.00
2017-11-28T00:28:31.996Z,6.00
2017-11-28T00:31:03.384Z,6.00
2017-11-28T00:33:31.632Z,6.00
2017-11-28T00:36:00.242Z,6.00
2017-11-28T00:38:28.495Z,6.00
2017-11-28T00:40:56.772Z,6.10
2017-11-28T00:43:25.050Z,6.10
2017-11-28T00:45:53.300Z,6.10
2017-11-28T00:48:22.156Z,6.00
2017-11-28T00:50:50.951Z,6.00
2017-11-28T00:53:19.224Z,6.00
2017-11-28T00:55:47.469Z,6.00
2017-11-28T00:58:14.959Z,6.00
2017-11-28T01:00:43.244Z,6.00
2017-11-28T01:03:11.492Z,6.00
2017-11-28T01:05:39.772Z,6.00
2017-11-28T01:08:08.024Z,6.00
2017-11-28T01:10:36.273Z,6.00
2017-11-28T01:13:04.552Z,6.00
2017-11-28T01:15:32.806Z,6.10
2017-11-28T01:18:01.085Z,6.00
2017-11-28T01:20:30.271Z,6.00
2017-11-28T01:22:58.557Z,6.00
2017-11-28T01:25:26.804Z,5.90
2017-11-28T01:27:55.049Z,5.90
2017-11-28T01:30:23.907Z,5.90
2017-11-28T01:32:52.160Z,5.90
2017-11-28T01:35:20.408Z,5.90
2017-11-28T01:37:48.681Z,6.00
2017-11-28T01:40:16.973Z,5.90
2017-11-28T01:42:45.232Z,5.90
2017-11-28T01:45:13.471Z,5.90
2017-11-28T01:47:41.762Z,5.90
2017-11-28T01:50:10.053Z,6.00
2017-11-28T01:52:38.332Z,6.00
2017-11-28T01:55:06.635Z,5.90
2017-11-28T01:57:34.877Z,6.00
2017-11-28T02:00:03.390Z,6.00
2017-11-28T02:02:31.854Z,6.00
2017-11-28T02:05:01.281Z,6.00
2017-11-28T02:07:29.576Z,6.00
2017-11-28T02:09:57.823Z,6.00
2017-11-28T02:12:26.068Z,6.00
2017-11-28T02:14:55.246Z,6.00
2017-11-28T02:17:23.963Z,6.00
2017-11-28T02:19:52.246Z,6.00
2017-11-28T02:22:20.535Z,6.00
2017-11-28T02:24:48.785Z,6.00
2017-11-28T02:27:16.275Z,6.00
2017-11-28T02:29:44.558Z,6.10
2017-11-28T02:32:12.808Z,6.10
2017-11-28T02:34:41.108Z,6.00
2017-11-28T02:37:09.365Z,6.00
2017-11-28T02:39:37.608Z,6.00
2017-11-28T02:42:05.888Z,6.00
2017-11-28T02:44:34.138Z,6.00
2017-11-28T02:47:03.260Z,6.00
2017-11-28T02:49:33.256Z,6.10
2017-11-28T02:52:01.504Z,6.20
2017-11-28T02:54:29.780Z,6.10
2017-11-28T02:57:12.236Z,6.10
2017-11-28T02:59:40.518Z,6.10
2017-11-28T03:02:08.784Z,6.10
2017-11-28T03:04:37.071Z,6.10
2017-11-28T03:07:06.096Z,6.10
2017-11-28T03:09:35.988Z,6.10
2017-11-28T03:12:06.131Z,6.10
2017-11-28T03:14:36.191Z,6.10
2017-11-28T03:17:05.993Z,6.10
2017-11-28T03:19:35.123Z,6.10
2017-11-28T03:22:16.869Z,6.10
2017-11-28T03:25:11.039Z,6.10
2017-11-28T03:27:48.152Z,6.10
2017-11-28T03:30:19.410Z,6.10
2017-11-28T03:32:47.692Z,6.00
2017-11-28T03:35:15.979Z,6.00
2017-11-28T03:37:44.447Z,6.00
2017-11-28T03:40:12.696Z,6.00
2017-11-28T03:42:40.980Z,6.00
2017-11-28T03:45:12.516Z,6.10
2017-11-28T03:47:40.795Z,6.10
2017-11-28T03:50:12.775Z,6.10
2017-11-28T03:52:41.060Z,6.00
2017-11-28T03:55:09.341Z,6.10
2017-11-28T03:57:37.600Z,6.10
2017-11-28T04:00:05.874Z,6.00
2017-11-28T04:02:58.012Z,6.00
2017-11-28T04:05:32.323Z,6.00
2017-11-28T04:08:01.624Z,6.00
2017-11-28T04:10:30.031Z,6.00
2017-11-28T04:12:59.259Z,6.00
2017-11-28T04:15:30.404Z,6.00
2017-11-28T04:17:58.657Z,6.00
2017-11-28T04:20:26.913Z,6.10
2017-11-28T04:22:55.194Z,6.20
2017-11-28T04:25:24.216Z,6.00
2017-11-28T04:27:51.728Z,6.00
2017-11-28T04:30:19.971Z,6.00
2017-11-28T04:32:48.260Z,6.10
2017-11-28T04:35:16.511Z,6.10
2017-11-28T04:37:44.792Z,6.10
2017-11-28T04:40:13.034Z,6.00
2017-11-28T04:42:41.319Z,6.00
2017-11-28T04:45:09.573Z,6.00
2017-11-28T04:47:37.870Z,6.00
2017-11-28T04:50:13.853Z,6.00
2017-11-28T04:52:42.145Z,6.10
2017-11-28T04:55:10.408Z,6.10
2017-11-28T04:57:38.659Z,6.00
2017-11-28T05:00:06.180Z,6.00
2017-11-28T05:02:34.427Z,6.00
2017-11-28T05:05:15.162Z,6.00
2017-11-28T05:07:43.407Z,6.00
2017-11-28T05:10:11.736Z,6.00
2017-11-28T05:12:39.992Z,5.90
2017-11-28T05:15:08.282Z,5.90
2017-11-28T05:17:36.580Z,5.90
2017-11-28T05:20:04.494Z,5.90
2017-11-28T05:22:36.857Z,5.90
2017-11-28T05:25:05.126Z,5.90
2017-11-28T05:27:34.215Z,5.90
2017-11-28T05:30:12.265Z,5.90
2017-11-28T05:32:48.810Z,5.80
2017-11-28T05:35:24.358Z,5.80
2017-11-28T05:37:53.644Z,5.70
2017-11-28T05:40:21.906Z,5.70
2017-11-28T05:43:00.173Z,5.70
2017-11-28T05:45:28.433Z,5.70
2017-11-28T05:47:56.742Z,5.70
2017-11-28T05:50:25.018Z,5.60
2017-11-28T05:53:12.750Z,5.60
2017-11-28T05:55:41.024Z,5.60
2017-11-28T05:58:09.314Z,5.60
2017-11-28T06:00:37.620Z,5.60
2017-11-28T06:03:05.875Z,5.60
2017-11-28T06:05:34.469Z,5.60
2017-11-28T06:08:09.318Z,5.60
2017-11-28T06:10:37.619Z,5.70
2017-11-28T06:13:05.917Z,5.60
2017-11-28T06:15:34.703Z,5.50
2017-11-28T06:18:03.328Z,5.50
2017-11-28T06:20:32.379Z,5.40
2017-11-28T06:23:00.650Z,5.40
2017-11-28T06:25:28.928Z,5.40
2017-11-28T06:27:57.224Z,5.40
2017-11-28T06:30:25.522Z,5.40
2017-11-28T06:32:53.786Z,5.40
2017-11-28T06:35:23.789Z,5.40
2017-11-28T06:37:52.063Z,5.40
2017-11-28T06:40:20.423Z,5.40
2017-11-28T06:42:48.678Z,5.40
2017-11-28T06:45:16.951Z,5.40
2017-11-28T06:47:45.247Z,5.40
2017-11-28T06:50:13.525Z,5.40
2017-11-28T06:52:41.811Z,5.30
2017-11-28T06:55:10.093Z,5.20
2017-11-28T06:57:38.398Z,5.20
2017-11-28T07:00:06.661Z,5.20
2017-11-28T07:02:38.581Z,5.20
2017-11-28T07:05:06.859Z,5.30
2017-11-28T07:07:35.238Z,5.30
2017-11-28T07:10:04.150Z,5.30
2017-11-28T07:12:33.137Z,5.30
2017-11-28T07:15:01.411Z,5.30
2017-11-28T07:17:29.714Z,5.30
2017-11-28T07:19:58.012Z,5.30
2017-11-28T07:22:29.652Z,5.30
2017-11-28T07:24:57.953Z,5.30
2017-11-28T07:27:25.459Z,5.30
2017-11-28T07:29:53.760Z,5.30
2017-11-28T07:32:22.187Z,5.40
2017-11-28T07:35:00.403Z,5.40
2017-11-28T07:37:28.694Z,5.40
2017-11-28T07:39:56.962Z,5.50
2017-11-28T07:42:25.270Z,5.40
2017-11-28T07:44:54.220Z,5.40
2017-11-28T07:47:22.528Z,5.50
2017-11-28T07:50:02.450Z,5.40
2017-11-28T07:52:30.721Z,5.40
2017-11-28T07:54:58.994Z,5.40
2017-11-28T07:57:37.584Z,5.30
2017-11-28T08:00:05.893Z,5.30
2017-11-28T08:02:34.500Z,5.30
2017-11-28T08:05:03.583Z,5.30
2017-11-28T08:07:31.119Z,5.30
2017-11-28T08:09:59.406Z,5.20
2017-11-28T08:12:27.718Z,5.30
2017-11-28T08:14:55.985Z,5.30
2017-11-28T08:17:26.199Z,5.30
2017-11-28T08:19:55.175Z,5.30
2017-11-28T08:22:24.107Z,5.40
2017-11-28T08:24:52.364Z,5.30
2017-11-28T08:27:20.657Z,5.40
2017-11-28T08:29:48.962Z,5.40
2017-11-28T08:32:17.229Z,5.40
2017-11-28T08:34:45.534Z,5.30
2017-11-28T08:37:13.796Z,5.40
2017-11-28T08:39:45.484Z,5.40
2017-11-28T08:42:13.749Z,5.40
2017-11-28T08:44:42.054Z,5.40
2017-11-28T08:47:10.312Z,5.40
2017-11-28T08:49:37.868Z,5.40
2017-11-28T08:52:06.140Z,5.40
2017-11-28T08:54:34.410Z,5.40
2017-11-28T08:57:03.277Z,5.40
2017-11-28T08:59:34.679Z,5.40
2017-11-28T09:02:03.277Z,5.40
2017-11-28T09:04:31.565Z,5.40
2017-11-28T09:06:59.822Z,5.50
2017-11-28T09:09:29.062Z,5.50
2017-11-28T09:11:57.329Z,5.50
2017-11-28T09:14:25.646Z,5.50
2017-11-28T09:16:53.914Z,5.60
2017-11-28T09:19:22.195Z,5.50
2017-11-28T09:21:50.494Z,5.60
2017-11-28T09:24:31.193Z,5.60
2017-11-28T09:26:59.456Z,5.60
2017-11-28T09:29:27.819Z,5.60
2017-11-28T09:31:56.085Z,5.60
2017-11-28T09:34:26.365Z,5.60
2017-11-28T09:36:55.591Z,5.70
2017-11-28T09:39:23.876Z,5.80
2017-11-28T09:41:52.147Z,5.80
2017-11-28T09:44:20.465Z,5.80
2017-11-28T09:46:48.723Z,5.90
2017-11-28T09:49:16.997Z,5.90
2017-11-28T09:51:45.284Z,6.00
2017-11-28T09:54:13.554Z,6.00
2017-11-28T09:56:41.860Z,6.00
2017-11-28T09:59:10.133Z,6.00
2017-11-28T10:01:38.398Z,6.10
2017-11-28T10:04:06.703Z,6.10
2017-11-28T10:06:35.010Z,6.20
2017-11-28T10:09:04.064Z,6.30
2017-11-28T10:11:33.006Z,6.30
2017-11-28T10:14:01.269Z,6.30
2017-11-28T10:16:28.810Z,6.30
2017-11-28T10:18:56.337Z,6.40
2017-11-28T10:21:26.569Z,6.30
2017-11-28T10:23:55.323Z,6.30
2017-11-28T10:26:24.173Z,6.30
2017-11-28T10:28:52.475Z,6.30
2017-11-28T10:31:20.751Z,6.30
2017-11-28T10:33:49.053Z,6.20
2017-11-28T10:36:17.326Z,6.30
2017-11-28T10:38:45.627Z,6.30
2017-11-28T10:41:13.884Z,6.30
2017-11-28T10:43:42.144Z,6.40
2017-11-28T10:46:10.428Z,6.30
2017-11-28T10:48:38.689Z,6.40
2017-11-28T10:51:06.977Z,6.50
2017-11-28T10:53:35.247Z,6.50
2017-11-28T10:56:04.380Z,6.50
2017-11-28T10:58:33.215Z,6.60
2017-11-28T11:01:01.465Z,6.70
2017-11-28T11:03:29.761Z,6.70
2017-11-28T11:05:58.024Z,6.70
2017-11-28T11:08:26.329Z,6.70
2017-11-28T11:10:55.312Z,6.70
2017-11-28T11:13:24.184Z,6.70
2017-11-28T11:15:52.469Z,6.80
2017-11-28T11:18:19.954Z,6.70
2017-11-28T11:20:48.239Z,6.80
2017-11-28T11:23:16.497Z,6.80
2017-11-28T11:25:44.795Z,6.80
2017-11-28T11:28:13.076Z,6.80
2017-11-28T11:30:41.356Z,6.90
2017-11-28T11:33:09.637Z,6.90
2017-11-28T11:35:37.892Z,6.90
2017-11-28T11:38:06.193Z,7.00
2017-11-28T11:40:34.452Z,7.00
2017-11-28T11:43:03.240Z,7.00
2017-11-28T11:45:31.532Z,7.00
2017-11-28T11:47:59.052Z,7.00
2017-11-28T11:50:27.298Z,7.10
2017-11-28T11:52:55.583Z,7.20
2017-11-28T11:55:24.172Z,7.10
2017-11-28T11:57:52.460Z,7.10
2017-11-28T12:00:20.743Z,7.10
2017-11-28T12:02:48.993Z,7.20
2017-11-28T12:05:17.275Z,7.20
2017-11-28T12:07:45.524Z,7.20
2017-11-28T12:10:13.808Z,7.20
2017-11-28T12:12:42.072Z,7.10
2017-11-28T12:15:10.357Z,7.00
2017-11-28T12:17:38.608Z,7.10
2017-11-28T12:20:06.897Z,7.00
2017-11-28T12:22:35.155Z,6.90
2017-11-28T12:25:04.179Z,6.80
2017-11-28T12:27:33.360Z,6.80
2017-11-28T12:30:01.650Z,6.80
2017-11-28T12:32:30.445Z,6.70
2017-11-28T12:34:58.724Z,6.80
2017-11-28T12:37:27.007Z,6.80
2017-11-28T12:39:55.260Z,6.90
2017-11-28T12:42:24.529Z,6.90
2017-11-28T12:44:59.209Z,7.10
2017-11-28T12:47:27.487Z,7.10
2017-11-28T12:49:55.731Z,7.20
2017-11-28T12:52:24.025Z,7.30
2017-11-28T12:54:52.280Z,7.30
2017-11-28T12:57:20.559Z,7.20
2017-11-28T12:59:48.817Z,7.40
2017-11-28T13:02:17.100Z,7.30
2017-11-28T13:04:45.380Z,7.40
2017-11-28T13:07:13.655Z,7.30
2017-11-28T13:09:41.901Z,7.20
2017-11-28T13:12:10.188Z,7.10
2017-11-28T13:14:38.428Z,7.10
2017-11-28T13:17:06.720Z,7.10
2017-11-28T13:19:34.970Z,7.20
2017-11-28T13:22:04.536Z,7.10
2017-11-28T13:24:33.671Z,7.10
2017-11-28T13:27:02.636Z,7.20
2017-11-28T13:29:30.921Z,7.20
2017-11-28T13:31:59.167Z,7.40
2017-11-28T13:34:27.443Z,7.50
2017-11-28T13:36:55.697Z,7.50
2017-11-28T13:39:23.984Z,7.50
2017-11-28T13:41:52.233Z,7.50
2017-11-28T13:44:20.517Z,7.60
2017-11-28T13:46:48.765Z,7.50
2017-11-28T13:49:17.045Z,7.50
2017-11-28T13:51:45.338Z,7.50
2017-11-28T13:54:13.635Z,7.60
2017-11-28T13:56:41.880Z,7.60
2017-11-28T13:59:10.673Z,7.60
2017-11-28T14:01:38.959Z,7.60
2017-11-28T14:04:07.203Z,7.40
2017-11-28T14:06:35.453Z,7.40
2017-11-28T14:09:06.790Z,7.40
2017-11-28T14:11:35.038Z,7.40
2017-11-28T14:14:03.323Z,7.40
2017-11-28T14:16:31.563Z,7.40
2017-11-28T14:18:59.815Z,7.30
2017-11-28T14:21:33.924Z,7.30
2017-11-28T14:24:19.828Z,7.40
2017-11-28T14:26:53.823Z,7.40
2017-11-28T14:29:22.079Z,7.40
2017-11-28T14:31:55.917Z,7.40
2017-11-28T14:34:25.193Z,7.30
2017-11-28T14:36:54.208Z,7.30
2017-11-28T14:39:23.330Z,7.20
2017-11-28T14:41:54.184Z,7.20
2017-11-28T14:44:26.057Z,7.10
2017-11-28T14:46:55.020Z,7.20
2017-11-28T14:49:23.455Z,7.10
2017-11-28T14:51:54.160Z,7.10
2017-11-28T14:54:28.036Z,7.00
2017-11-28T14:57:03.080Z,7.00
2017-11-28T14:59:36.873Z,7.10
2017-11-28T15:02:20.740Z,7.00
2017-11-28T15:04:54.552Z,7.00
2017-11-28T15:07:28.556Z,7.00
2017-11-28T15:10:03.358Z,7.00
2017-11-28T15:12:37.197Z,7.00
2017-11-28T15:15:11.224Z,6.90
2017-11-28T15:17:40.274Z,6.90
2017-11-28T15:20:09.976Z,6.90
2017-11-28T15:22:38.264Z,6.90
2017-11-28T15:25:08.956Z,6.80
2017-11-28T15:27:37.247Z,6.70
2017-11-28T15:30:05.497Z,6.60
2017-11-28T15:32:35.160Z,6.60
2017-11-28T15:35:04.325Z,6.50
2017-11-28T15:37:33.304Z,6.40
2017-11-28T15:40:01.562Z,6.40
2017-11-28T15:42:29.863Z,6.30
2017-11-28T15:44:58.131Z,6.40
2017-11-28T15:47:26.434Z,6.40
2017-11-28T15:49:55.455Z,6.30
2017-11-28T15:52:24.282Z,6.30
2017-11-28T15:54:52.578Z,6.40
2017-11-28T15:57:20.846Z,6.30
2017-11-28T15:59:49.109Z,6.30
2017-11-28T16:02:17.415Z,6.30
2017-11-28T16:04:45.665Z,6.20
2017-11-28T16:07:13.937Z,6.20
2017-11-28T16:09:45.660Z,6.20
2017-11-28T16:12:13.914Z,6.10
2017-11-28T16:14:42.228Z,6.10
2017-11-28T16:17:10.525Z,6.10
2017-11-28T16:19:38.833Z,6.00
2017-11-28T16:22:07.090Z,6.00
2017-11-28T16:24:35.346Z,6.10
2017-11-28T16:27:04.724Z,6.00
2017-11-28T16:29:33.875Z,6.00
2017-11-28T16:32:02.207Z,5.90
2017-11-28T16:34:30.479Z,5.90
2017-11-28T16:36:58.750Z,5.90
2017-11-28T16:39:27.042Z,6.00
2017-11-28T16:41:55.336Z,5.90
2017-11-28T16:44:24.258Z,5.90
2017-11-28T16:46:52.534Z,5.80
2017-11-28T16:49:20.050Z,5.80
2017-11-28T16:52:04.983Z,5.80
2017-11-28T16:54:37.096Z,5.80
2017-11-28T16:57:05.398Z,5.80
2017-11-28T16:59:40.055Z,5.80
2017-11-28T17:02:08.327Z,5.90
2017-11-28T17:04:36.584Z,5.90
2017-11-28T17:07:05.271Z,5.80
2017-11-28T17:09:34.330Z,5.80
2017-11-28T17:12:03.665Z,5.80
2017-11-28T17:14:33.141Z,5.80
2017-11-28T17:17:01.428Z,5.90
2017-11-28T17:19:29.706Z,5.90
2017-11-28T17:21:57.989Z,5.80
2017-11-28T17:24:26.302Z,5.80
2017-11-28T17:26:55.175Z,5.80
2017-11-28T17:29:23.456Z,5.80
2017-11-28T17:31:51.756Z,5.80
2017-11-28T17:34:20.027Z,5.80
2017-11-28T17:36:48.282Z,5.90
2017-11-28T17:39:16.574Z,5.80
2017-11-28T17:41:44.876Z,5.80
2017-11-28T17:44:13.145Z,5.80
2017-11-28T17:46:41.400Z,5.80
2017-11-28T17:49:09.699Z,5.80
2017-11-28T17:51:37.961Z,5.80
2017-11-28T17:54:06.263Z,5.70
2017-11-28T17:56:34.536Z,5.70
2017-11-28T17:59:03.538Z,5.60
2017-11-28T18:01:31.803Z,5.60
2017-11-28T18:04:00.116Z,5.60
2017-11-28T18:06:28.394Z,5.50
2017-11-28T18:08:56.649Z,5.50
2017-11-28T18:11:25.585Z,5.50
2017-11-28T18:13:54.338Z,5.60
2017-11-28T18:16:22.637Z,5.60
2017-11-28T18:18:50.922Z,5.60
2017-11-28T18:21:24.661Z,5.50
2017-11-28T18:23:53.542Z,5.40
2017-11-28T18:26:21.839Z,5.50
2017-11-28T18:28:50.119Z,5.40
2017-11-28T18:31:18.414Z,5.40
2017-11-28T18:33:46.697Z,5.40
2017-11-28T18:36:15.017Z,5.30
2017-11-28T18:38:43.319Z,5.30
2017-11-28T18:41:11.587Z,5.20
2017-11-28T18:43:39.090Z,5.20
2017-11-28T18:46:07.391Z,5.20
2017-11-28T18:48:35.706Z,5.20
2017-11-28T18:51:05.061Z,5.30
2017-11-28T18:53:33.913Z,5.20
2017-11-28T18:56:02.574Z,5.20
2017-11-28T18:58:30.845Z,5.20
2017-11-28T19:00:59.144Z,5.20
2017-11-28T19:03:27.434Z,5.20
2017-11-28T19:05:55.729Z,5.20
2017-11-28T19:08:24.366Z,5.20
2017-11-28T19:10:52.665Z,5.20
2017-11-28T19:13:20.944Z,5.20
2017-11-28T19:15:49.233Z,5.20
2017-11-28T19:18:17.515Z,5.30
2017-11-28T19:20:45.802Z,5.20
2017-11-28T19:23:14.070Z,5.30
2017-11-28T19:25:41.557Z,5.30
2017-11-28T19:28:09.841Z,5.40
2017-11-28T19:30:38.160Z,5.30
2017-11-28T19:33:06.424Z,5.30
2017-11-28T19:35:35.997Z,5.20
2017-11-28T19:38:04.288Z,5.20
2017-11-28T19:40:33.506Z,5.20
2017-11-28T19:43:01.819Z,5.10
2017-11-28T19:45:30.090Z,5.10
2017-11-28T19:47:58.383Z,5.10
2017-11-28T19:50:26.699Z,5.10
2017-11-28T19:52:55.428Z,5.10
2017-11-28T19:55:24.492Z,5.10
2017-11-28T19:57:52.030Z,5.10
2017-11-28T20:00:20.299Z,5.10
2017-11-28T20:02:48.607Z,5.00
2017-11-28T20:05:16.882Z,5.00
2017-11-28T20:07:45.163Z,5.00
2017-11-28T20:10:13.462Z,5.00
2017-11-28T20:12:41.726Z,4.90
2017-11-28T20:15:12.207Z,4.90
2017-11-28T20:17:40.476Z,4.90
2017-11-28T20:20:08.787Z,4.90
2017-11-28T20:22:37.067Z,4.90
2017-11-28T20:25:04.957Z,4.90
2017-11-28T20:27:33.637Z,4.90
2017-11-28T20:30:02.987Z,4.90
2017-11-28T20:32:31.283Z,4.90
2017-11-28T20:34:59.577Z,4.90
2017-11-28T20:37:27.849Z,4.80
2017-11-28T20:39:56.127Z,4.80
2017-11-28T20:42:25.121Z,4.80
2017-11-28T20:44:54.004Z,4.80
2017-11-28T20:47:22.265Z,4.80
2017-11-28T20:49:50.579Z,4.70
2017-11-28T20:52:18.854Z,4.60
2017-11-28T20:54:47.152Z,4.60
2017-11-28T20:57:15.424Z,4.60
2017-11-28T20:59:43.730Z,4.60
2017-11-28T21:02:11.999Z,4.60
2017-11-28T21:04:40.309Z,4.60
2017-11-28T21:07:08.586Z,4.50
2017-11-28T21:09:36.880Z,4.60
2017-11-28T21:12:05.168Z,4.60
2017-11-28T21:14:34.354Z,4.50
2017-11-28T21:17:03.281Z,4.60
2017-11-28T21:19:31.562Z,4.60
2017-11-28T21:22:00.206Z,4.60
2017-11-28T21:24:29.178Z,4.50
2017-11-28T21:26:57.438Z,4.50
2017-11-28T21:29:26.257Z,4.50
2017-11-28T21:31:55.425Z,4.50
2017-11-28T21:34:24.375Z,4.50
2017-11-28T21:36:51.921Z,4.50
2017-11-28T21:39:20.217Z,4.40
2017-11-28T21:41:48.520Z,4.40
2017-11-28T21:44:16.790Z,4.40
2017-11-28T21:46:45.111Z,4.40
2017-11-28T21:49:13.373Z,4.30
2017-11-28T21:51:41.652Z,4.30
2017-11-28T21:54:09.966Z,4.30
2017-11-28T21:56:38.622Z,4.40
2017-11-28T21:59:07.267Z,4.20
2017-11-28T22:01:35.930Z,4.20
2017-11-28T22:04:10.675Z,4.20
2017-11-28T22:06:39.314Z,4.20
2017-11-28T22:09:08.206Z,4.20
2017-11-28T22:11:36.505Z,4.20
2017-11-28T22:14:04.810Z,4.20
2017-11-28T22:16:33.894Z,4.20
2017-11-28T22:19:02.987Z,4.30
2017-11-28T22:21:31.294Z,4.20
2017-11-28T22:23:59.913Z,4.30
2017-11-28T22:26:28.589Z,4.20
2017-11-28T22:28:57.625Z,4.10
2017-11-28T22:31:26.435Z,4.10
2017-11-28T22:33:55.402Z,4.00
2017-11-28T22:36:24.377Z,4.10
2017-11-28T22:38:52.673Z,4.10
2017-11-28T22:41:20.962Z,4.00
2017-11-28T22:43:49.247Z,4.00
2017-11-28T22:46:17.634Z,4.00
2017-11-28T22:48:45.910Z,4.10
2017-11-28T22:51:14.183Z,4.00
2017-11-28T22:53:41.719Z,4.00
2017-11-28T22:56:09.991Z,4.10
2017-11-28T22:58:38.571Z,4.10
2017-11-28T23:01:07.203Z,4.10
2017-11-28T23:03:39.201Z,4.00
2017-11-28T23:06:08.110Z,4.00
2017-11-28T23:08:36.782Z,4.00
2017-11-28T23:11:05.369Z,4.00
2017-11-28T23:13:45.529Z,4.00
2017-11-28T23:16:13.829Z,3.90
2017-11-28T23:18:42.109Z,3.90
2017-11-28T23:21:10.404Z,3.90
2017-11-28T23:23:42.457Z,3.90
2017-11-28T23:26:10.762Z,3.90
2017-11-28T23:28:39.342Z,3.80
2017-11-28T23:31:07.929Z,3.80
2017-11-28T23:33:36.564Z,3.80
2017-11-28T23:36:05.359Z,3.80
2017-11-28T23:38:33.734Z,3.80
2017-11-28T23:41:02.815Z,3.80
2017-11-28T23:43:31.090Z,3.70
2017-11-28T23:45:59.761Z,3.70
2017-11-28T23:48:27.907Z,3.70
2017-11-28T23:50:56.547Z,3.70
2017-11-28T23:53:26.107Z,3.70
2017-11-28T23:55:55.059Z,3.70
2017-11-28T23:58:23.909Z,3.70
